sensor_id;sensor_type;location;lat;lon;timestamp;P1;durP1;ratioP1;P2;durP2;ratioP2
72920;SDS011;61064;51.654;5.476;2022-09-02T00:00:33;7.30;;;1.07;;
72920;SDS011;61064;51.654;5.476;2022-09-02T00:02:59;3.92;;;0.90;;
72920;SDS011;61064;51.654;5.476;2022-09-02T00:05:24;4.47;;;0.80;;
72920;SDS011;61064;51.654;5.476;2022-09-02T00:07:50;5.77;;;0.90;;
72920;SDS011;61064;51.654;5.476;2022-09-02T00:10:15;9.07;;;1.10;;
72920;SDS011;61064;51.654;5.476;2022-09-02T00:12:41;6.40;;;1.10;;
72920;SDS011;61064;51.654;5.476;2022-09-02T00:15:06;5.43;;;1.00;;
72920;SDS011;61064;51.654;5.476;2022-09-02T00:17:32;5.05;;;0.93;;
72920;SDS011;61064;51.654;5.476;2022-09-02T00:19:58;6.07;;;0.93;;
72920;SDS011;61064;51.654;5.476;2022-09-02T00:22:23;6.73;;;0.90;;
72920;SDS011;61064;51.654;5.476;2022-09-02T00:24:49;7.22;;;1.00;;
72920;SDS011;61064;51.654;5.476;2022-09-02T00:27:14;4.63;;;0.87;;
72920;SDS011;61064;51.654;5.476;2022-09-02T00:29:40;2.77;;;0.73;;
72920;SDS011;61064;51.654;5.476;2022-09-02T00:32:05;5.50;;;1.10;;
72920;SDS011;61064;51.654;5.476;2022-09-02T00:34:30;4.40;;;1.10;;
72920;SDS011;61064;51.654;5.476;2022-09-02T00:36:56;5.07;;;0.90;;
72920;SDS011;61064;51.654;5.476;2022-09-02T00:39:22;4.20;;;1.00;;
72920;SDS011;61064;51.654;5.476;2022-09-02T00:41:47;4.20;;;0.93;;
72920;SDS011;61064;51.654;5.476;2022-09-02T00:44:14;5.87;;;1.10;;
72920;SDS011;61064;51.654;5.476;2022-09-02T00:46:41;4.63;;;1.10;;
72920;SDS011;61064;51.654;5.476;2022-09-02T00:51:43;5.57;;;1.17;;
72920;SDS011;61064;51.654;5.476;2022-09-02T00:54:13;6.03;;;1.05;;
72920;SDS011;61064;51.654;5.476;2022-09-02T00:56:40;6.97;;;0.98;;
72920;SDS011;61064;51.654;5.476;2022-09-02T00:59:11;4.70;;;1.00;;
72920;SDS011;61064;51.654;5.476;2022-09-02T01:01:53;4.93;;;1.00;;
72920;SDS011;61064;51.654;5.476;2022-09-02T01:04:19;4.10;;;1.00;;
72920;SDS011;61064;51.654;5.476;2022-09-02T01:06:44;3.33;;;0.82;;
72920;SDS011;61064;51.654;5.476;2022-09-02T01:09:12;8.90;;;0.93;;
72920;SDS011;61064;51.654;5.476;2022-09-02T01:11:41;4.70;;;1.17;;
72920;SDS011;61064;51.654;5.476;2022-09-02T01:14:12;5.97;;;1.02;;
72920;SDS011;61064;51.654;5.476;2022-09-02T01:16:47;3.30;;;0.80;;
72920;SDS011;61064;51.654;5.476;2022-09-02T01:19:24;6.90;;;1.23;;
72920;SDS011;61064;51.654;5.476;2022-09-02T01:21:55;4.03;;;0.98;;
72920;SDS011;61064;51.654;5.476;2022-09-02T01:24:22;5.30;;;1.20;;
72920;SDS011;61064;51.654;5.476;2022-09-02T01:26:53;5.10;;;1.02;;
72920;SDS011;61064;51.654;5.476;2022-09-02T01:29:21;5.20;;;0.88;;
72920;SDS011;61064;51.654;5.476;2022-09-02T01:31:47;5.87;;;1.10;;
72920;SDS011;61064;51.654;5.476;2022-09-02T01:34:13;5.65;;;1.20;;
72920;SDS011;61064;51.654;5.476;2022-09-02T01:36:39;4.83;;;1.10;;
72920;SDS011;61064;51.654;5.476;2022-09-02T01:39:07;4.47;;;1.10;;
72920;SDS011;61064;51.654;5.476;2022-09-02T01:41:33;7.72;;;1.00;;
72920;SDS011;61064;51.654;5.476;2022-09-02T01:43:59;5.93;;;1.17;;
72920;SDS011;61064;51.654;5.476;2022-09-02T01:46:25;4.73;;;1.00;;
72920;SDS011;61064;51.654;5.476;2022-09-02T01:48:50;4.80;;;1.00;;
72920;SDS011;61064;51.654;5.476;2022-09-02T01:51:16;4.37;;;0.83;;
72920;SDS011;61064;51.654;5.476;2022-09-02T01:53:44;7.32;;;1.13;;
72920;SDS011;61064;51.654;5.476;2022-09-02T01:56:10;5.40;;;1.20;;
72920;SDS011;61064;51.654;5.476;2022-09-02T01:58:35;5.43;;;1.30;;
72920;SDS011;61064;51.654;5.476;2022-09-02T02:01:01;7.70;;;1.37;;
72920;SDS011;61064;51.654;5.476;2022-09-02T02:03:27;4.78;;;1.13;;
72920;SDS011;61064;51.654;5.476;2022-09-02T02:05:52;4.23;;;1.20;;
72920;SDS011;61064;51.654;5.476;2022-09-02T02:08:18;4.80;;;1.10;;
72920;SDS011;61064;51.654;5.476;2022-09-02T02:10:43;3.87;;;1.00;;
72920;SDS011;61064;51.654;5.476;2022-09-02T02:13:09;5.23;;;1.13;;
72920;SDS011;61064;51.654;5.476;2022-09-02T02:15:38;4.45;;;1.10;;
72920;SDS011;61064;51.654;5.476;2022-09-02T02:18:06;5.20;;;1.25;;
72920;SDS011;61064;51.654;5.476;2022-09-02T02:20:32;7.07;;;1.20;;
72920;SDS011;61064;51.654;5.476;2022-09-02T02:22:58;4.53;;;1.20;;
72920;SDS011;61064;51.654;5.476;2022-09-02T02:25:24;5.00;;;1.00;;
72920;SDS011;61064;51.654;5.476;2022-09-02T02:27:49;3.37;;;0.87;;
72920;SDS011;61064;51.654;5.476;2022-09-02T02:30:15;4.10;;;1.00;;
72920;SDS011;61064;51.654;5.476;2022-09-02T02:32:42;6.37;;;1.20;;
72920;SDS011;61064;51.654;5.476;2022-09-02T02:35:09;4.75;;;1.00;;
72920;SDS011;61064;51.654;5.476;2022-09-02T02:37:35;6.35;;;1.13;;
72920;SDS011;61064;51.654;5.476;2022-09-02T02:40:01;4.97;;;1.23;;
72920;SDS011;61064;51.654;5.476;2022-09-02T02:42:28;5.60;;;1.17;;
72920;SDS011;61064;51.654;5.476;2022-09-02T02:44:54;5.37;;;1.13;;
72920;SDS011;61064;51.654;5.476;2022-09-02T02:47:19;4.90;;;1.20;;
72920;SDS011;61064;51.654;5.476;2022-09-02T02:49:45;8.55;;;1.27;;
72920;SDS011;61064;51.654;5.476;2022-09-02T02:52:10;5.60;;;1.10;;
72920;SDS011;61064;51.654;5.476;2022-09-02T02:54:37;5.05;;;1.10;;
72920;SDS011;61064;51.654;5.476;2022-09-02T02:57:03;4.68;;;1.20;;
72920;SDS011;61064;51.654;5.476;2022-09-02T02:59:29;5.07;;;1.00;;
72920;SDS011;61064;51.654;5.476;2022-09-02T03:01:56;4.05;;;1.10;;
72920;SDS011;61064;51.654;5.476;2022-09-02T03:04:21;5.65;;;1.30;;
72920;SDS011;61064;51.654;5.476;2022-09-02T03:06:47;3.60;;;1.00;;
72920;SDS011;61064;51.654;5.476;2022-09-02T03:09:13;9.65;;;1.23;;
72920;SDS011;61064;51.654;5.476;2022-09-02T03:11:38;5.07;;;1.20;;
72920;SDS011;61064;51.654;5.476;2022-09-02T03:14:04;5.03;;;0.97;;
72920;SDS011;61064;51.654;5.476;2022-09-02T03:16:29;4.38;;;1.13;;
72920;SDS011;61064;51.654;5.476;2022-09-02T03:18:55;6.93;;;1.30;;
72920;SDS011;61064;51.654;5.476;2022-09-02T03:21:20;5.30;;;1.20;;
72920;SDS011;61064;51.654;5.476;2022-09-02T03:23:46;4.97;;;1.20;;
72920;SDS011;61064;51.654;5.476;2022-09-02T03:26:17;6.30;;;1.10;;
72920;SDS011;61064;51.654;5.476;2022-09-02T03:28:44;5.97;;;1.00;;
72920;SDS011;61064;51.654;5.476;2022-09-02T03:31:16;6.80;;;1.15;;
72920;SDS011;61064;51.654;5.476;2022-09-02T03:33:43;5.03;;;1.25;;
72920;SDS011;61064;51.654;5.476;2022-09-02T03:36:17;3.88;;;1.10;;
72920;SDS011;61064;51.654;5.476;2022-09-02T03:38:54;7.13;;;1.10;;
72920;SDS011;61064;51.654;5.476;2022-09-02T03:41:20;5.00;;;1.30;;
72920;SDS011;61064;51.654;5.476;2022-09-02T03:43:46;7.15;;;1.42;;
72920;SDS011;61064;51.654;5.476;2022-09-02T03:46:12;5.32;;;1.23;;
72920;SDS011;61064;51.654;5.476;2022-09-02T03:48:38;5.57;;;1.20;;
72920;SDS011;61064;51.654;5.476;2022-09-02T03:51:04;4.90;;;1.23;;
72920;SDS011;61064;51.654;5.476;2022-09-02T03:53:30;6.60;;;1.30;;
72920;SDS011;61064;51.654;5.476;2022-09-02T03:55:57;6.55;;;1.20;;
72920;SDS011;61064;51.654;5.476;2022-09-02T03:58:27;4.70;;;1.30;;
72920;SDS011;61064;51.654;5.476;2022-09-02T04:00:53;5.75;;;1.20;;
72920;SDS011;61064;51.654;5.476;2022-09-02T04:03:19;10.03;;;2.10;;
72920;SDS011;61064;51.654;5.476;2022-09-02T04:05:45;6.78;;;1.52;;
72920;SDS011;61064;51.654;5.476;2022-09-02T04:08:14;6.35;;;1.40;;
72920;SDS011;61064;51.654;5.476;2022-09-02T04:10:40;6.43;;;1.52;;
72920;SDS011;61064;51.654;5.476;2022-09-02T04:13:05;7.43;;;1.40;;
72920;SDS011;61064;51.654;5.476;2022-09-02T04:15:31;7.17;;;1.63;;
72920;SDS011;61064;51.654;5.476;2022-09-02T04:17:57;6.90;;;2.15;;
72920;SDS011;61064;51.654;5.476;2022-09-02T04:20:22;7.83;;;1.40;;
72920;SDS011;61064;51.654;5.476;2022-09-02T04:22:48;7.67;;;1.53;;
72920;SDS011;61064;51.654;5.476;2022-09-02T04:25:13;6.85;;;1.30;;
72920;SDS011;61064;51.654;5.476;2022-09-02T04:27:39;5.80;;;1.40;;
72920;SDS011;61064;51.654;5.476;2022-09-02T04:30:05;6.13;;;1.40;;
72920;SDS011;61064;51.654;5.476;2022-09-02T04:32:33;5.53;;;1.40;;
72920;SDS011;61064;51.654;5.476;2022-09-02T04:34:59;5.80;;;1.40;;
72920;SDS011;61064;51.654;5.476;2022-09-02T04:37:24;5.40;;;1.43;;
72920;SDS011;61064;51.654;5.476;2022-09-02T04:39:50;5.80;;;1.30;;
72920;SDS011;61064;51.654;5.476;2022-09-02T04:42:16;4.90;;;1.30;;
72920;SDS011;61064;51.654;5.476;2022-09-02T04:44:42;9.80;;;1.50;;
72920;SDS011;61064;51.654;5.476;2022-09-02T04:47:07;6.70;;;1.50;;
72920;SDS011;61064;51.654;5.476;2022-09-02T04:49:32;5.77;;;1.47;;
72920;SDS011;61064;51.654;5.476;2022-09-02T04:51:58;6.30;;;1.40;;
72920;SDS011;61064;51.654;5.476;2022-09-02T04:54:24;9.35;;;1.60;;
72920;SDS011;61064;51.654;5.476;2022-09-02T04:56:51;4.72;;;1.40;;
72920;SDS011;61064;51.654;5.476;2022-09-02T04:59:16;6.03;;;1.50;;
72920;SDS011;61064;51.654;5.476;2022-09-02T05:01:42;5.27;;;1.60;;
72920;SDS011;61064;51.654;5.476;2022-09-02T05:04:07;8.20;;;1.83;;
72920;SDS011;61064;51.654;5.476;2022-09-02T05:06:34;6.90;;;1.77;;
72920;SDS011;61064;51.654;5.476;2022-09-02T05:09:00;7.65;;;2.42;;
72920;SDS011;61064;51.654;5.476;2022-09-02T05:11:26;6.50;;;1.43;;
72920;SDS011;61064;51.654;5.476;2022-09-02T05:13:54;7.55;;;1.42;;
72920;SDS011;61064;51.654;5.476;2022-09-02T05:16:22;7.20;;;1.65;;
72920;SDS011;61064;51.654;5.476;2022-09-02T05:18:52;7.78;;;1.48;;
72920;SDS011;61064;51.654;5.476;2022-09-02T05:21:18;7.03;;;1.50;;
72920;SDS011;61064;51.654;5.476;2022-09-02T05:23:44;5.23;;;1.47;;
72920;SDS011;61064;51.654;5.476;2022-09-02T05:26:11;9.82;;;1.55;;
72920;SDS011;61064;51.654;5.476;2022-09-02T05:28:37;4.95;;;1.42;;
72920;SDS011;61064;51.654;5.476;2022-09-02T05:31:12;8.80;;;1.48;;
72920;SDS011;61064;51.654;5.476;2022-09-02T05:33:39;6.37;;;1.70;;
72920;SDS011;61064;51.654;5.476;2022-09-02T05:36:06;8.48;;;1.70;;
72920;SDS011;61064;51.654;5.476;2022-09-02T05:38:33;5.90;;;1.50;;
72920;SDS011;61064;51.654;5.476;2022-09-02T05:41:06;6.30;;;1.58;;
72920;SDS011;61064;51.654;5.476;2022-09-02T05:43:34;5.15;;;1.42;;
72920;SDS011;61064;51.654;5.476;2022-09-02T05:46:04;6.50;;;1.30;;
72920;SDS011;61064;51.654;5.476;2022-09-02T05:48:32;8.93;;;1.50;;
72920;SDS011;61064;51.654;5.476;2022-09-02T05:51:20;8.18;;;1.60;;
72920;SDS011;61064;51.654;5.476;2022-09-02T05:53:45;6.30;;;1.33;;
72920;SDS011;61064;51.654;5.476;2022-09-02T05:56:10;7.13;;;1.80;;
72920;SDS011;61064;51.654;5.476;2022-09-02T05:58:36;8.25;;;1.65;;
72920;SDS011;61064;51.654;5.476;2022-09-02T06:01:08;7.27;;;1.43;;
72920;SDS011;61064;51.654;5.476;2022-09-02T06:03:35;5.63;;;1.50;;
72920;SDS011;61064;51.654;5.476;2022-09-02T06:06:01;7.18;;;1.60;;
72920;SDS011;61064;51.654;5.476;2022-09-02T06:08:26;5.90;;;1.97;;
72920;SDS011;61064;51.654;5.476;2022-09-02T06:10:52;5.00;;;1.43;;
72920;SDS011;61064;51.654;5.476;2022-09-02T06:13:17;5.70;;;1.50;;
72920;SDS011;61064;51.654;5.476;2022-09-02T06:15:46;6.47;;;1.50;;
72920;SDS011;61064;51.654;5.476;2022-09-02T06:18:11;5.65;;;1.50;;
72920;SDS011;61064;51.654;5.476;2022-09-02T06:20:44;6.60;;;1.93;;
72920;SDS011;61064;51.654;5.476;2022-09-02T06:23:10;5.25;;;1.60;;
72920;SDS011;61064;51.654;5.476;2022-09-02T06:25:40;6.00;;;1.80;;
72920;SDS011;61064;51.654;5.476;2022-09-02T06:28:08;7.63;;;1.70;;
72920;SDS011;61064;51.654;5.476;2022-09-02T06:30:34;9.63;;;1.80;;
72920;SDS011;61064;51.654;5.476;2022-09-02T06:32:59;7.40;;;1.50;;
72920;SDS011;61064;51.654;5.476;2022-09-02T06:35:28;9.88;;;2.17;;
72920;SDS011;61064;51.654;5.476;2022-09-02T06:37:56;6.88;;;1.73;;
72920;SDS011;61064;51.654;5.476;2022-09-02T06:40:21;8.90;;;1.70;;
72920;SDS011;61064;51.654;5.476;2022-09-02T06:42:47;7.93;;;1.70;;
72920;SDS011;61064;51.654;5.476;2022-09-02T06:45:13;13.27;;;1.90;;
72920;SDS011;61064;51.654;5.476;2022-09-02T06:47:38;6.13;;;1.50;;
72920;SDS011;61064;51.654;5.476;2022-09-02T06:50:04;6.37;;;1.70;;
72920;SDS011;61064;51.654;5.476;2022-09-02T06:52:29;7.35;;;1.83;;
72920;SDS011;61064;51.654;5.476;2022-09-02T06:54:55;6.73;;;1.70;;
72920;SDS011;61064;51.654;5.476;2022-09-02T06:57:20;8.43;;;1.87;;
72920;SDS011;61064;51.654;5.476;2022-09-02T06:59:46;7.33;;;1.90;;
72920;SDS011;61064;51.654;5.476;2022-09-02T07:02:12;10.07;;;1.80;;
72920;SDS011;61064;51.654;5.476;2022-09-02T07:04:39;8.85;;;1.73;;
72920;SDS011;61064;51.654;5.476;2022-09-02T07:07:23;7.72;;;1.98;;
72920;SDS011;61064;51.654;5.476;2022-09-02T07:09:49;6.37;;;1.70;;
72920;SDS011;61064;51.654;5.476;2022-09-02T07:12:15;8.52;;;1.90;;
72920;SDS011;61064;51.654;5.476;2022-09-02T07:14:41;10.10;;;1.97;;
72920;SDS011;61064;51.654;5.476;2022-09-02T07:17:08;7.70;;;1.80;;
72920;SDS011;61064;51.654;5.476;2022-09-02T07:19:35;7.00;;;2.00;;
72920;SDS011;61064;51.654;5.476;2022-09-02T07:22:04;6.78;;;1.92;;
72920;SDS011;61064;51.654;5.476;2022-09-02T07:24:31;8.90;;;1.90;;
72920;SDS011;61064;51.654;5.476;2022-09-02T07:26:56;6.70;;;1.70;;
72920;SDS011;61064;51.654;5.476;2022-09-02T07:29:22;8.37;;;1.70;;
72920;SDS011;61064;51.654;5.476;2022-09-02T07:31:47;6.88;;;1.90;;
72920;SDS011;61064;51.654;5.476;2022-09-02T07:34:13;9.30;;;1.90;;
72920;SDS011;61064;51.654;5.476;2022-09-02T07:36:39;6.35;;;1.92;;
72920;SDS011;61064;51.654;5.476;2022-09-02T07:39:06;8.00;;;2.10;;
72920;SDS011;61064;51.654;5.476;2022-09-02T07:41:33;8.32;;;2.00;;
72920;SDS011;61064;51.654;5.476;2022-09-02T07:43:59;7.53;;;2.08;;
72920;SDS011;61064;51.654;5.476;2022-09-02T07:46:24;6.80;;;1.97;;
72920;SDS011;61064;51.654;5.476;2022-09-02T07:48:50;8.88;;;2.13;;
72920;SDS011;61064;51.654;5.476;2022-09-02T07:51:18;8.20;;;1.97;;
72920;SDS011;61064;51.654;5.476;2022-09-02T07:53:44;6.88;;;2.20;;
72920;SDS011;61064;51.654;5.476;2022-09-02T07:56:10;7.97;;;2.17;;
72920;SDS011;61064;51.654;5.476;2022-09-02T07:58:37;7.10;;;2.03;;
72920;SDS011;61064;51.654;5.476;2022-09-02T08:01:04;6.80;;;1.77;;
72920;SDS011;61064;51.654;5.476;2022-09-02T08:03:29;8.77;;;1.93;;
72920;SDS011;61064;51.654;5.476;2022-09-02T08:05:55;9.43;;;2.10;;
72920;SDS011;61064;51.654;5.476;2022-09-02T08:08:21;8.10;;;2.10;;
72920;SDS011;61064;51.654;5.476;2022-09-02T08:10:48;7.22;;;2.40;;
72920;SDS011;61064;51.654;5.476;2022-09-02T08:13:15;9.32;;;2.10;;
72920;SDS011;61064;51.654;5.476;2022-09-02T08:15:42;7.32;;;1.90;;
72920;SDS011;61064;51.654;5.476;2022-09-02T08:18:07;8.97;;;2.00;;
72920;SDS011;61064;51.654;5.476;2022-09-02T08:20:33;8.90;;;2.20;;
72920;SDS011;61064;51.654;5.476;2022-09-02T08:22:59;6.78;;;2.10;;
72920;SDS011;61064;51.654;5.476;2022-09-02T08:25:24;7.77;;;2.20;;
72920;SDS011;61064;51.654;5.476;2022-09-02T08:27:50;8.87;;;2.50;;
72920;SDS011;61064;51.654;5.476;2022-09-02T08:30:17;9.00;;;2.23;;
72920;SDS011;61064;51.654;5.476;2022-09-02T08:32:43;11.98;;;2.60;;
72920;SDS011;61064;51.654;5.476;2022-09-02T08:35:08;8.90;;;2.30;;
72920;SDS011;61064;51.654;5.476;2022-09-02T08:37:34;9.45;;;2.60;;
72920;SDS011;61064;51.654;5.476;2022-09-02T08:40:02;12.32;;;2.58;;
72920;SDS011;61064;51.654;5.476;2022-09-02T08:42:35;10.07;;;2.77;;
72920;SDS011;61064;51.654;5.476;2022-09-02T08:45:13;9.88;;;2.50;;
72920;SDS011;61064;51.654;5.476;2022-09-02T08:47:46;9.57;;;2.35;;
72920;SDS011;61064;51.654;5.476;2022-09-02T08:50:17;10.88;;;2.50;;
72920;SDS011;61064;51.654;5.476;2022-09-02T08:55:37;9.57;;;2.30;;
72920;SDS011;61064;51.654;5.476;2022-09-02T08:58:16;8.27;;;2.40;;
72920;SDS011;61064;51.654;5.476;2022-09-02T09:00:44;7.63;;;2.40;;
72920;SDS011;61064;51.654;5.476;2022-09-02T09:03:24;8.35;;;2.10;;
72920;SDS011;61064;51.654;5.476;2022-09-02T09:08:50;10.33;;;2.37;;
72920;SDS011;61064;51.654;5.476;2022-09-02T09:11:23;13.02;;;2.72;;
72920;SDS011;61064;51.654;5.476;2022-09-02T09:17:37;13.52;;;2.50;;
72920;SDS011;61064;51.654;5.476;2022-09-02T09:20:08;11.10;;;2.97;;
72920;SDS011;61064;51.654;5.476;2022-09-02T09:22:40;8.23;;;2.60;;
72920;SDS011;61064;51.654;5.476;2022-09-02T09:25:08;7.57;;;2.33;;
72920;SDS011;61064;51.654;5.476;2022-09-02T09:27:37;9.52;;;3.20;;
72920;SDS011;61064;51.654;5.476;2022-09-02T09:30:04;10.48;;;2.60;;
72920;SDS011;61064;51.654;5.476;2022-09-02T09:32:33;10.43;;;2.70;;
72920;SDS011;61064;51.654;5.476;2022-09-02T09:35:08;9.10;;;2.40;;
72920;SDS011;61064;51.654;5.476;2022-09-02T09:37:40;10.52;;;2.92;;
72920;SDS011;61064;51.654;5.476;2022-09-02T09:45:20;10.32;;;2.60;;
72920;SDS011;61064;51.654;5.476;2022-09-02T09:50:43;10.82;;;2.50;;
72920;SDS011;61064;51.654;5.476;2022-09-02T09:56:24;10.07;;;2.85;;
72920;SDS011;61064;51.654;5.476;2022-09-02T09:58:43;11.10;;;2.80;;
72920;SDS011;61064;51.654;5.476;2022-09-02T10:01:23;11.20;;;3.30;;
72920;SDS011;61064;51.654;5.476;2022-09-02T10:04:02;10.88;;;2.55;;
72920;SDS011;61064;51.654;5.476;2022-09-02T10:11:55;9.30;;;2.60;;
72920;SDS011;61064;51.654;5.476;2022-09-02T10:14:21;8.73;;;2.97;;
72920;SDS011;61064;51.654;5.476;2022-09-02T10:22:47;8.68;;;3.15;;
72920;SDS011;61064;51.654;5.476;2022-09-02T10:28:42;9.30;;;2.50;;
72920;SDS011;61064;51.654;5.476;2022-09-02T10:31:34;12.20;;;2.97;;
72920;SDS011;61064;51.654;5.476;2022-09-02T10:53:42;7.30;;;2.40;;
72920;SDS011;61064;51.654;5.476;2022-09-02T10:56:39;7.30;;;2.20;;
72920;SDS011;61064;51.654;5.476;2022-09-02T10:59:15;5.78;;;1.90;;
72920;SDS011;61064;51.654;5.476;2022-09-02T11:04:21;6.45;;;1.95;;
72920;SDS011;61064;51.654;5.476;2022-09-02T11:07:01;6.18;;;1.70;;
72920;SDS011;61064;51.654;5.476;2022-09-02T11:09:43;7.50;;;1.75;;
72920;SDS011;61064;51.654;5.476;2022-09-02T11:12:17;5.93;;;1.60;;
72920;SDS011;61064;51.654;5.476;2022-09-02T11:17:50;6.82;;;1.48;;
72920;SDS011;61064;51.654;5.476;2022-09-02T11:20:27;5.55;;;1.60;;
72920;SDS011;61064;51.654;5.476;2022-09-02T11:23:00;5.50;;;1.40;;
72920;SDS011;61064;51.654;5.476;2022-09-02T11:25:31;7.95;;;1.63;;
72920;SDS011;61064;51.654;5.476;2022-09-02T11:30:59;5.65;;;1.50;;
72920;SDS011;61064;51.654;5.476;2022-09-02T11:33:56;5.60;;;1.83;;
72920;SDS011;61064;51.654;5.476;2022-09-02T11:36:26;6.47;;;1.50;;
72920;SDS011;61064;51.654;5.476;2022-09-02T11:39:09;7.97;;;1.90;;
72920;SDS011;61064;51.654;5.476;2022-09-02T11:41:51;5.10;;;1.63;;
72920;SDS011;61064;51.654;5.476;2022-09-02T11:55:49;7.20;;;1.70;;
72920;SDS011;61064;51.654;5.476;2022-09-02T11:58:34;8.25;;;1.80;;
72920;SDS011;61064;51.654;5.476;2022-09-02T12:03:33;6.47;;;1.90;;
72920;SDS011;61064;51.654;5.476;2022-09-02T12:06:16;6.65;;;1.67;;
72920;SDS011;61064;51.654;5.476;2022-09-02T12:14:06;5.38;;;1.60;;
72920;SDS011;61064;51.654;5.476;2022-09-02T12:16:59;7.15;;;1.60;;
72920;SDS011;61064;51.654;5.476;2022-09-02T12:19:28;6.00;;;1.70;;
72920;SDS011;61064;51.654;5.476;2022-09-02T12:27:35;6.88;;;1.58;;
72920;SDS011;61064;51.654;5.476;2022-09-02T12:30:03;7.47;;;1.90;;
72920;SDS011;61064;51.654;5.476;2022-09-02T12:35:57;5.13;;;1.70;;
72920;SDS011;61064;51.654;5.476;2022-09-02T12:40:40;6.43;;;1.60;;
72920;SDS011;61064;51.654;5.476;2022-09-02T12:46:20;7.03;;;1.55;;
72920;SDS011;61064;51.654;5.476;2022-09-02T12:49:02;7.13;;;1.77;;
72920;SDS011;61064;51.654;5.476;2022-09-02T12:51:51;6.03;;;1.60;;
72920;SDS011;61064;51.654;5.476;2022-09-02T12:54:26;6.38;;;1.73;;
72920;SDS011;61064;51.654;5.476;2022-09-02T12:57:04;5.22;;;1.50;;
72920;SDS011;61064;51.654;5.476;2022-09-02T12:59:34;7.80;;;1.80;;
72920;SDS011;61064;51.654;5.476;2022-09-02T13:02:20;5.00;;;1.40;;
72920;SDS011;61064;51.654;5.476;2022-09-02T13:05:12;5.20;;;1.63;;
72920;SDS011;61064;51.654;5.476;2022-09-02T13:07:54;6.20;;;1.40;;
72920;SDS011;61064;51.654;5.476;2022-09-02T13:19:01;7.32;;;1.80;;
72920;SDS011;61064;51.654;5.476;2022-09-02T13:34:31;6.82;;;1.20;;
72920;SDS011;61064;51.654;5.476;2022-09-02T13:36:42;4.65;;;1.27;;
72920;SDS011;61064;51.654;5.476;2022-09-02T13:42:14;6.00;;;1.70;;
72920;SDS011;61064;51.654;5.476;2022-09-02T13:44:47;5.40;;;1.40;;
72920;SDS011;61064;51.654;5.476;2022-09-02T13:47:13;7.22;;;1.50;;
72920;SDS011;61064;51.654;5.476;2022-09-02T13:49:46;6.33;;;1.70;;
72920;SDS011;61064;51.654;5.476;2022-09-02T13:52:19;4.40;;;1.50;;
72920;SDS011;61064;51.654;5.476;2022-09-02T13:54:53;7.50;;;1.63;;
72920;SDS011;61064;51.654;5.476;2022-09-02T13:57:26;6.85;;;1.80;;
72920;SDS011;61064;51.654;5.476;2022-09-02T13:59:56;6.18;;;1.95;;
72920;SDS011;61064;51.654;5.476;2022-09-02T14:02:32;10.00;;;4.87;;
72920;SDS011;61064;51.654;5.476;2022-09-02T14:05:02;6.53;;;2.22;;
72920;SDS011;61064;51.654;5.476;2022-09-02T14:07:34;5.72;;;2.28;;
72920;SDS011;61064;51.654;5.476;2022-09-02T14:10:07;6.93;;;1.80;;
72920;SDS011;61064;51.654;5.476;2022-09-02T14:12:37;10.63;;;2.53;;
72920;SDS011;61064;51.654;5.476;2022-09-02T14:15:07;6.13;;;2.00;;
72920;SDS011;61064;51.654;5.476;2022-09-02T14:17:36;6.18;;;2.00;;
72920;SDS011;61064;51.654;5.476;2022-09-02T14:22:42;7.97;;;1.70;;
72920;SDS011;61064;51.654;5.476;2022-09-02T14:25:10;4.90;;;1.48;;
72920;SDS011;61064;51.654;5.476;2022-09-02T14:27:37;4.53;;;1.20;;
72920;SDS011;61064;51.654;5.476;2022-09-02T14:30:04;5.68;;;1.60;;
72920;SDS011;61064;51.654;5.476;2022-09-02T14:32:34;10.02;;;1.85;;
72920;SDS011;61064;51.654;5.476;2022-09-02T14:35:07;7.72;;;2.10;;
72920;SDS011;61064;51.654;5.476;2022-09-02T14:37:55;8.63;;;2.70;;
72920;SDS011;61064;51.654;5.476;2022-09-02T14:40:38;7.27;;;1.93;;
72920;SDS011;61064;51.654;5.476;2022-09-02T14:43:12;7.20;;;1.55;;
72920;SDS011;61064;51.654;5.476;2022-09-02T14:45:40;8.10;;;2.05;;
72920;SDS011;61064;51.654;5.476;2022-09-02T14:48:29;8.25;;;2.72;;
72920;SDS011;61064;51.654;5.476;2022-09-02T14:51:02;8.05;;;2.70;;
72920;SDS011;61064;51.654;5.476;2022-09-02T14:53:30;8.73;;;3.13;;
72920;SDS011;61064;51.654;5.476;2022-09-02T14:55:56;8.70;;;2.00;;
72920;SDS011;61064;51.654;5.476;2022-09-02T14:58:24;6.35;;;1.60;;
72920;SDS011;61064;51.654;5.476;2022-09-02T15:00:52;7.20;;;1.50;;
72920;SDS011;61064;51.654;5.476;2022-09-02T15:03:20;6.03;;;1.50;;
72920;SDS011;61064;51.654;5.476;2022-09-02T15:05:47;6.23;;;1.40;;
72920;SDS011;61064;51.654;5.476;2022-09-02T15:08:13;5.25;;;1.33;;
72920;SDS011;61064;51.654;5.476;2022-09-02T15:10:40;6.53;;;1.55;;
72920;SDS011;61064;51.654;5.476;2022-09-02T15:13:28;5.03;;;1.40;;
72920;SDS011;61064;51.654;5.476;2022-09-02T15:15:58;7.57;;;1.50;;
72920;SDS011;61064;51.654;5.476;2022-09-02T15:18:24;7.87;;;1.90;;
72920;SDS011;61064;51.654;5.476;2022-09-02T15:20:50;6.57;;;1.70;;
72920;SDS011;61064;51.654;5.476;2022-09-02T15:23:15;8.80;;;1.80;;
72920;SDS011;61064;51.654;5.476;2022-09-02T15:25:41;5.88;;;1.80;;
72920;SDS011;61064;51.654;5.476;2022-09-02T15:28:06;7.67;;;1.60;;
72920;SDS011;61064;51.654;5.476;2022-09-02T15:30:35;5.47;;;1.50;;
72920;SDS011;61064;51.654;5.476;2022-09-02T15:33:01;7.95;;;1.70;;
72920;SDS011;61064;51.654;5.476;2022-09-02T15:35:29;5.40;;;1.70;;
72920;SDS011;61064;51.654;5.476;2022-09-02T15:37:55;4.75;;;1.33;;
72920;SDS011;61064;51.654;5.476;2022-09-02T15:40:21;7.83;;;1.40;;
72920;SDS011;61064;51.654;5.476;2022-09-02T15:42:47;5.88;;;1.50;;
72920;SDS011;61064;51.654;5.476;2022-09-02T15:45:12;6.10;;;1.40;;
72920;SDS011;61064;51.654;5.476;2022-09-02T15:47:39;6.85;;;1.52;;
72920;SDS011;61064;51.654;5.476;2022-09-02T15:50:05;6.15;;;1.73;;
72920;SDS011;61064;51.654;5.476;2022-09-02T15:52:32;7.93;;;1.50;;
72920;SDS011;61064;51.654;5.476;2022-09-02T15:54:58;5.93;;;1.48;;
72920;SDS011;61064;51.654;5.476;2022-09-02T15:57:23;4.40;;;1.50;;
72920;SDS011;61064;51.654;5.476;2022-09-02T15:59:49;6.78;;;1.70;;
72920;SDS011;61064;51.654;5.476;2022-09-02T16:02:15;6.00;;;1.47;;
72920;SDS011;61064;51.654;5.476;2022-09-02T16:04:40;6.57;;;1.50;;
72920;SDS011;61064;51.654;5.476;2022-09-02T16:07:06;5.63;;;1.53;;
72920;SDS011;61064;51.654;5.476;2022-09-02T16:09:31;6.77;;;1.60;;
72920;SDS011;61064;51.654;5.476;2022-09-02T16:11:57;7.37;;;1.77;;
72920;SDS011;61064;51.654;5.476;2022-09-02T16:14:22;5.37;;;1.67;;
72920;SDS011;61064;51.654;5.476;2022-09-02T16:16:49;7.85;;;1.60;;
72920;SDS011;61064;51.654;5.476;2022-09-02T16:19:21;7.77;;;2.10;;
72920;SDS011;61064;51.654;5.476;2022-09-02T16:21:59;6.13;;;1.80;;
72920;SDS011;61064;51.654;5.476;2022-09-02T16:24:38;5.93;;;1.60;;
72920;SDS011;61064;51.654;5.476;2022-09-02T16:27:07;4.68;;;1.30;;
72920;SDS011;61064;51.654;5.476;2022-09-02T16:29:36;6.28;;;1.58;;
72920;SDS011;61064;51.654;5.476;2022-09-02T16:32:03;5.67;;;1.50;;
72920;SDS011;61064;51.654;5.476;2022-09-02T16:34:29;4.55;;;1.60;;
72920;SDS011;61064;51.654;5.476;2022-09-02T16:36:55;7.13;;;1.40;;
72920;SDS011;61064;51.654;5.476;2022-09-02T16:39:20;4.63;;;1.40;;
72920;SDS011;61064;51.654;5.476;2022-09-02T16:41:46;6.70;;;1.70;;
72920;SDS011;61064;51.654;5.476;2022-09-02T16:44:29;5.93;;;1.45;;
72920;SDS011;61064;51.654;5.476;2022-09-02T16:46:57;6.50;;;1.58;;
72920;SDS011;61064;51.654;5.476;2022-09-02T16:49:28;5.60;;;1.70;;
72920;SDS011;61064;51.654;5.476;2022-09-02T16:51:54;5.28;;;1.30;;
72920;SDS011;61064;51.654;5.476;2022-09-02T16:54:19;5.47;;;1.60;;
72920;SDS011;61064;51.654;5.476;2022-09-02T16:56:54;5.93;;;1.73;;
72920;SDS011;61064;51.654;5.476;2022-09-02T16:59:23;8.57;;;1.80;;
72920;SDS011;61064;51.654;5.476;2022-09-02T17:01:48;6.22;;;2.10;;
72920;SDS011;61064;51.654;5.476;2022-09-02T17:07:26;7.22;;;1.52;;